Time;durP1;ratioP1;P1;durP2;ratioP2;P2;SDS_P1;SDS_P2;PMS_P1;PMS_P2;Temp;Humidity;BMP_temperature;BMP_pressure;BME280_temperature;BME280_humidity;BME280_pressure;Samples;Min_cycle;Max_cycle;Signal;HPM_P1;HPM_P2
2021/10/15 00:00:24;;;;;;;33.60;18.40;;;;;;;7.00;74.08;98822.33;116372;1201;137154;-87
2021/10/15 00:03:02;;;;;;;37.80;18.50;;;;;;;7.01;73.84;98819.46;115786;1201;24119;-87
2021/10/15 00:05:43;;;;;;;29.50;16.30;;;;;;;7.02;73.88;98812.05;115229;1201;137226;-87
2021/10/15 00:08:10;;;;;;;33.00;17.30;;;;;;;7.02;74.10;98813.37;116071;1195;24112;-86
2021/10/15 00:10:37;;;;;;;29.00;15.50;;;;;;;7.03;73.98;98812.16;115851;1201;138797;-85
2021/10/15 00:13:04;;;;;;;31.20;16.20;;;;;;;7.06;73.98;98812.73;116794;1201;23017;-86
2021/10/15 00:15:31;;;;;;;30.30;15.70;;;;;;;7.09;74.24;98812.86;116765;1186;22695;-86
2021/10/15 00:17:58;;;;;;;31.60;15.80;;;;;;;7.12;74.25;98812.80;116634;1196;136998;-86
2021/10/15 00:20:25;;;;;;;28.70;15.20;;;;;;;7.14;74.21;98811.39;114944;1201;22455;-86
2021/10/15 00:22:52;;;;;;;31.90;15.80;;;;;;;7.16;74.09;98814.20;113964;1201;137645;-85
2021/10/15 00:25:19;;;;;;;33.30;16.30;;;;;;;7.18;74.22;98810.73;114119;1201;25015;-85
2021/10/15 00:27:46;;;;;;;31.10;15.50;;;;;;;7.18;74.05;98810.52;114484;1197;25177;-85
2021/10/15 00:30:13;;;;;;;29.80;16.10;;;;;;;7.18;73.98;98808.36;115952;1201;138635;-85
2021/10/15 00:32:40;;;;;;;27.80;14.20;;;;;;;7.19;74.11;98806.15;114163;1201;25017;-86
2021/10/15 00:35:07;;;;;;;30.70;16.30;;;;;;;7.22;74.04;98800.43;114914;1201;137648;-87
2021/10/15 00:37:34;;;;;;;36.50;16.00;;;;;;;7.22;73.97;98793.80;114287;1196;23029;-87
2021/10/15 00:40:02;;;;;;;45.60;19.80;;;;;;;7.25;74.43;98791.49;115489;1201;22387;-86
2021/10/15 00:42:29;;;;;;;34.10;16.80;;;;;;;7.25;73.97;98788.91;116117;1201;137147;-86
2021/10/15 00:44:56;;;;;;;31.60;15.80;;;;;;;7.24;74.05;98788.88;114077;1201;22492;-85
2021/10/15 00:47:22;;;;;;;30.90;15.50;;;;;;;7.23;74.42;98786.71;114099;1196;137047;-85
2021/10/15 00:49:49;;;;;;;31.20;15.80;;;;;;;7.22;74.37;98781.38;114780;1196;22443;-85
2021/10/15 00:52:16;;;;;;;27.30;14.90;;;;;;;7.22;74.33;98780.55;116606;1201;23067;-86
2021/10/15 00:54:47;;;;;;;26.50;14.30;;;;;;;7.20;74.23;98781.80;114392;1201;137239;-88
2021/10/15 00:57:17;;;;;;;26.40;14.40;;;;;;;7.20;74.47;98780.10;115214;1197;23046;-86
2021/10/15 00:59:44;;;;;;;30.40;15.50;;;;;;;7.20;74.65;98777.09;115661;1201;137214;-86
2021/10/15 01:02:12;;;;;;;26.60;14.50;;;;;;;7.18;74.78;98773.70;114814;1201;22447;-86
2021/10/15 01:04:40;;;;;;;30.60;14.40;;;;;;;7.17;74.57;98772.52;114413;1202;137284;-85
2021/10/15 01:07:08;;;;;;;26.80;13.90;;;;;;;7.16;74.99;98767.83;114062;1201;24063;-86
2021/10/15 01:09:36;;;;;;;27.50;14.30;;;;;;;7.15;74.72;98765.29;114117;1196;25024;-85
2021/10/15 01:12:05;;;;;;;28.20;13.90;;;;;;;7.12;75.02;98761.38;114448;1201;137201;-86
2021/10/15 01:14:46;;;;;;;29.40;15.20;;;;;;;7.08;75.15;98760.65;114574;1201;22460;-89
2021/10/15 01:17:13;;;;;;;29.40;15.00;;;;;;;7.06;75.21;98763.66;114449;1201;137017;-87
2021/10/15 01:19:56;;;;;;;29.30;15.20;;;;;;;7.01;75.53;98756.13;114320;1196;23814;-87
2021/10/15 01:22:36;;;;;;;28.20;14.40;;;;;;;6.98;75.90;98751.41;114331;1201;137134;-87
2021/10/15 01:25:04;;;;;;;27.80;14.30;;;;;;;6.96;75.81;98751.84;114462;1201;22484;-87
2021/10/15 01:27:45;;;;;;;27.40;14.10;;;;;;;6.97;75.94;98753.11;115575;1201;25142;-87
2021/10/15 01:30:12;;;;;;;25.60;13.40;;;;;;;6.98;76.08;98754.95;115893;1196;137231;-86
2021/10/15 01:32:52;;;;;;;29.30;14.60;;;;;;;6.98;76.24;98752.95;114348;1201;25236;-87
2021/10/15 01:35:20;;;;;;;26.50;13.90;;;;;;;6.98;76.45;98749.23;114418;1201;137009;-87
2021/10/15 01:37:46;;;;;;;24.50;14.10;;;;;;;6.97;76.36;98749.02;114105;1202;22435;-87
2021/10/15 01:40:13;;;;;;;26.70;13.60;;;;;;;6.98;76.58;98745.05;114169;1195;22424;-86
2021/10/15 01:45:40;;;;;;;27.20;14.00;;;;;;;7.00;76.82;98741.31;114613;1201;24112;-87
2021/10/15 01:48:21;;;;;;;28.10;14.40;;;;;;;7.00;76.85;98739.11;115148;1194;137616;-87
2021/10/15 01:50:49;;;;;;;28.00;14.10;;;;;;;7.01;76.93;98739.39;114988;1201;22502;-88
2021/10/15 01:53:16;;;;;;;25.00;14.50;;;;;;;7.00;76.83;98740.17;115611;1201;137049;-87
2021/10/15 01:55:57;;;;;;;20.10;12.40;;;;;;;7.00;77.14;98735.19;114992;1201;23100;-87
2021/10/15 01:58:24;;;;;;;19.70;11.20;;;;;;;7.01;77.06;98739.89;114431;1201;137816;-88
2021/10/15 02:00:51;;;;;;;21.60;11.90;;;;;;;7.01;77.07;98738.63;115488;1195;25058;-86
2021/10/15 02:03:18;;;;;;;20.40;11.20;;;;;;;7.02;77.11;98737.73;114966;1201;22570;-88
2021/10/15 02:05:46;;;;;;;27.00;12.80;;;;;;;7.03;77.33;98737.52;114988;1201;137052;-87
2021/10/15 02:08:26;;;;;;;24.10;11.90;;;;;;;7.03;77.43;98733.73;115423;1201;25277;-87
2021/10/15 02:10:53;;;;;;;23.90;11.60;;;;;;;7.02;77.73;98730.52;115779;1196;139470;-87
2021/10/15 02:13:34;;;;;;;20.30;11.40;;;;;;;7.05;77.79;98726.00;115129;1201;22441;-87
2021/10/15 02:16:02;;;;;;;19.90;11.00;;;;;;;7.08;77.71;98721.70;115470;1201;22487;-87
2021/10/15 02:18:29;;;;;;;21.50;11.50;;;;;;;7.10;77.80;98723.77;115730;1201;137523;-87
2021/10/15 02:21:10;;;;;;;19.80;10.20;;;;;;;7.12;78.10;98720.75;115212;1195;30248;-87
2021/10/15 02:23:37;;;;;;;19.80;11.40;;;;;;;7.12;77.83;98718.88;114617;1202;137442;-87
2021/10/15 02:26:04;;;;;;;22.60;11.90;;;;;;;7.14;78.03;98721.83;115333;1202;22428;-88
2021/10/15 02:28:31;;;;;;;21.40;11.60;;;;;;;7.15;78.07;98721.29;115355;1202;138104;-87
2021/10/15 02:30:58;;;;;;;23.40;12.10;;;;;;;7.17;77.97;98722.27;116702;1195;22317;-87
2021/10/15 02:33:25;;;;;;;19.50;11.60;;;;;;;7.21;77.87;98725.25;116583;1201;23112;-87
2021/10/15 02:35:52;;;;;;;21.50;12.60;;;;;;;7.23;77.70;98725.23;116635;1187;137185;-87
2021/10/15 02:38:19;;;;;;;20.20;10.40;;;;;;;7.24;77.74;98728.19;116773;1201;23145;-87
2021/10/15 02:40:46;;;;;;;20.30;11.40;;;;;;;7.24;77.64;98727.29;116274;1197;138574;-87
2021/10/15 02:43:13;;;;;;;20.10;11.10;;;;;;;7.26;77.65;98720.52;115539;1202;24075;-85
2021/10/15 02:45:40;;;;;;;23.20;12.00;;;;;;;7.28;77.87;98717.55;115875;1202;22394;-86
2021/10/15 02:48:07;;;;;;;25.80;12.10;;;;;;;7.27;77.81;98718.75;115958;1202;136989;-87
2021/10/15 02:50:34;;;;;;;27.90;14.60;;;;;;;7.26;78.06;98714.60;116477;1196;22294;-87
2021/10/15 02:53:02;;;;;;;25.30;12.40;;;;;;;7.24;77.82;98717.52;114838;1201;137274;-87
2021/10/15 02:55:29;;;;;;;27.50;13.80;;;;;;;7.25;77.92;98717.27;114130;1201;22559;-86
2021/10/15 02:57:56;;;;;;;21.90;11.80;;;;;;;7.26;77.91;98718.23;115029;1201;22200;-86
2021/10/15 03:00:23;;;;;;;26.40;13.00;;;;;;;7.27;78.05;98719.84;116551;1195;136994;-87
2021/10/15 03:03:04;;;;;;;22.60;12.10;;;;;;;7.29;78.04;98717.96;115324;1201;24284;-86
2021/10/15 03:05:45;;;;;;;23.20;12.80;;;;;;;7.28;78.19;98716.13;116285;1201;137667;-86
2021/10/15 03:08:12;;;;;;;25.60;11.90;;;;;;;7.28;78.30;98714.29;116411;1201;23356;-87
2021/10/15 03:10:39;;;;;;;19.60;10.80;;;;;;;7.30;78.10;98716.20;116617;1195;137797;-87
2021/10/15 03:13:06;;;;;;;21.00;10.20;;;;;;;7.33;78.19;98718.98;116722;1195;22294;-87
2021/10/15 03:15:35;;;;;;;19.50;11.10;;;;;;;7.36;77.91;98717.92;116207;1202;22915;-87
2021/10/15 03:18:02;;;;;;;23.50;11.00;;;;;;;7.37;77.92;98715.91;116528;1202;137593;-86
2021/10/15 03:20:29;;;;;;;25.50;12.70;;;;;;;7.39;77.97;98717.49;113783;1201;23140;-86
2021/10/15 03:22:57;;;;;;;24.70;11.80;;;;;;;7.41;78.02;98718.80;113918;1201;137317;-86
2021/10/15 03:25:38;;;;;;;23.80;12.00;;;;;;;7.38;77.81;98717.36;114116;1201;22443;-86
2021/10/15 03:28:18;;;;;;;19.60;11.00;;;;;;;7.37;78.00;98719.50;114171;1201;22472;-86
2021/10/15 03:30:59;;;;;;;20.70;10.60;;;;;;;7.39;78.03;98718.65;115305;1196;137988;-86
2021/10/15 03:33:26;;;;;;;22.70;11.70;;;;;;;7.42;78.02;98713.96;115044;1201;23774;-86
2021/10/15 03:35:53;;;;;;;23.00;11.50;;;;;;;7.43;78.07;98712.91;114460;1201;137382;-87
2021/10/15 03:38:21;;;;;;;36.50;13.30;;;;;;;7.43;78.07;98713.62;114125;1201;25017;-86
2021/10/15 03:40:48;;;;;;;23.60;12.10;;;;;;;7.42;77.83;98715.96;113983;1196;137271;-88
2021/10/15 03:43:15;;;;;;;22.50;10.80;;;;;;;7.40;77.92;98711.70;114394;1201;22359;-85
2021/10/15 03:45:42;;;;;;;21.60;11.50;;;;;;;7.40;78.04;98713.34;114343;1201;24167;-86
2021/10/15 03:48:09;;;;;;;20.20;9.80;;;;;;;7.40;77.91;98710.52;113999;1201;137608;-86
2021/10/15 03:50:37;;;;;;;18.90;10.50;;;;;;;7.42;78.39;98710.70;114732;1201;22526;-86
2021/10/15 03:53:17;;;;;;;20.50;11.20;;;;;;;7.42;78.12;98707.59;114205;1202;137598;-86
2021/10/15 03:55:45;;;;;;;19.10;10.30;;;;;;;7.42;78.37;98706.17;114802;1201;22308;-87
2021/10/15 03:58:12;;;;;;;20.70;10.90;;;;;;;7.43;78.43;98705.33;114406;1201;24086;-87
2021/10/15 04:00:39;;;;;;;21.40;10.40;;;;;;;7.45;78.33;98703.44;114017;1201;137974;-86
2021/10/15 04:03:06;;;;;;;21.40;11.20;;;;;;;7.45;78.34;98708.83;114561;1195;23088;-87
2021/10/15 04:05:33;;;;;;;22.50;11.10;;;;;;;7.44;78.08;98709.70;114344;1196;137924;-87
2021/10/15 04:08:00;;;;;;;24.80;11.90;;;;;;;7.43;78.46;98708.58;114352;1201;22905;-86
2021/10/15 04:10:41;;;;;;;24.50;11.90;;;;;;;7.42;78.39;98709.30;114879;1201;138133;-88
2021/10/15 04:13:22;;;;;;;20.80;10.70;;;;;;;7.39;78.34;98709.92;114652;1196;23252;-87
2021/10/15 04:15:49;;;;;;;20.70;11.20;;;;;;;7.40;78.46;98708.30;114209;1201;25304;-87
2021/10/15 04:18:16;;;;;;;21.50;11.00;;;;;;;7.40;78.29;98711.56;114341;1201;137355;-86
2021/10/15 04:20:57;;;;;;;23.00;11.70;;;;;;;7.40;78.62;98711.06;113950;1201;22429;-87
2021/10/15 04:23:24;;;;;;;19.80;10.70;;;;;;;7.41;78.22;98714.80;114379;1196;137043;-87
2021/10/15 04:26:05;;;;;;;24.70;13.20;;;;;;;7.40;78.78;98712.23;114515;1201;25267;-87
2021/10/15 04:28:32;;;;;;;22.00;11.20;;;;;;;7.38;78.49;98712.11;114227;1201;23092;-87
2021/10/15 04:30:59;;;;;;;24.30;11.60;;;;;;;7.37;78.86;98708.28;114173;1201;138110;-87
2021/10/15 04:33:40;;;;;;;24.10;11.50;;;;;;;7.38;78.75;98708.03;114529;1195;22481;-87
2021/10/15 04:36:07;;;;;;;21.00;11.50;;;;;;;7.40;78.88;98707.02;114008;1201;137018;-87
2021/10/15 04:38:47;;;;;;;23.30;11.80;;;;;;;7.40;78.70;98709.21;113787;1202;24290;-87
2021/10/15 04:41:14;;;;;;;24.60;12.90;;;;;;;7.37;78.68;98704.24;114569;1201;137230;-88
2021/10/15 04:43:41;;;;;;;24.50;12.60;;;;;;;7.35;78.81;98705.17;114407;1200;22521;-88
2021/10/15 04:46:08;;;;;;;23.00;11.80;;;;;;;7.35;78.90;98705.72;114202;1201;25146;-87
2021/10/15 04:48:36;;;;;;;20.50;11.40;;;;;;;7.37;78.88;98698.36;114661;1201;137373;-87
2021/10/15 04:51:03;;;;;;;21.50;11.30;;;;;;;7.40;79.22;98697.10;114138;1201;22450;-87
2021/10/15 04:53:29;;;;;;;24.70;12.10;;;;;;;7.41;79.05;98696.59;114214;1196;137199;-87
2021/10/15 04:55:56;;;;;;;19.80;10.40;;;;;;;7.42;79.12;98695.16;114736;1201;25146;-87
2021/10/15 04:58:37;;;;;;;22.40;10.80;;;;;;;7.43;78.98;98690.74;114691;1201;137171;-86
2021/10/15 05:01:04;;;;;;;24.80;10.80;;;;;;;7.44;79.15;98693.64;114392;1201;24145;-87
2021/10/15 05:03:45;;;;;;;20.90;10.10;;;;;;;7.47;79.06;98692.02;114547;1194;22440;-87
2021/10/15 05:06:12;;;;;;;23.90;10.60;;;;;;;7.49;79.24;98691.33;114112;1196;137239;-86
2021/10/15 05:08:49;;;;;;;20.10;10.40;;;;;;;7.51;79.08;98687.67;114620;1201;22481;-89
2021/10/15 05:11:16;;;;;;;26.00;12.30;;;;;;;7.53;79.10;98691.29;114278;1201;137668;-86
2021/10/15 05:13:43;;;;;;;22.00;11.40;;;;;;;7.53;79.22;98689.08;114745;1194;24013;-86
2021/10/15 05:16:10;;;;;;;19.30;10.90;;;;;;;7.55;79.18;98694.62;114571;1201;25134;-86
2021/10/15 05:18:37;;;;;;;22.60;10.90;;;;;;;7.57;79.21;98690.05;114646;1191;137527;-87
2021/10/15 05:21:04;;;;;;;16.10;10.00;;;;;;;7.59;78.87;98693.54;114057;1201;22410;-87
2021/10/15 05:23:45;;;;;;;23.40;12.80;;;;;;;7.64;79.30;98693.08;114776;1197;137098;-87
2021/10/15 05:26:12;;;;;;;21.90;10.60;;;;;;;7.68;79.31;98682.81;116623;1201;23143;-87
2021/10/15 05:28:39;;;;;;;21.70;10.50;;;;;;;7.71;79.08;98681.86;115367;1201;137234;-87
2021/10/15 05:31:06;;;;;;;22.90;10.80;;;;;;;7.74;79.04;98684.59;114392;1201;25162;-86
2021/10/15 05:33:33;;;;;;;16.40;9.40;;;;;;;7.78;78.80;98686.98;116735;1195;22227;-87
2021/10/15 05:36:00;;;;;;;17.90;10.10;;;;;;;7.82;78.84;98682.98;115535;1201;136875;-87
2021/10/15 05:38:30;;;;;;;19.70;10.20;;;;;;;7.85;78.71;98683.58;116783;1200;22327;-87
2021/10/15 05:40:57;;;;;;;18.30;10.30;;;;;;;7.89;78.77;98683.04;115635;1201;137244;-87
2021/10/15 05:43:24;;;;;;;20.40;10.70;;;;;;;7.92;78.61;98681.10;113724;1201;22450;-86
2021/10/15 05:45:51;;;;;;;21.90;10.50;;;;;;;7.94;78.55;98682.02;113845;1188;24063;-87
2021/10/15 05:48:18;;;;;;;23.70;10.30;;;;;;;7.97;78.85;98681.64;113613;1202;24247;-88
2021/10/15 05:50:46;;;;;;;20.40;9.70;;;;;;;8.01;78.50;98676.27;113716;1201;22567;-87
2021/10/15 05:53:16;;;;;;;22.90;11.20;;;;;;;8.02;78.27;98677.67;113552;1187;24069;-87
2021/10/15 06:01:15;;;;;;;20.70;10.10;;;;;;;8.10;78.78;98667.38;113607;1201;22437;-88
2021/10/15 06:03:45;;;;;;;17.50;11.00;;;;;;;8.11;78.51;98665.48;113305;1197;23121;-88
2021/10/15 06:14:43;;;;;;;20.00;10.50;;;;;;;8.24;78.65;98666.73;113665;1197;24184;-88
2021/10/15 06:17:12;;;;;;;17.00;9.60;;;;;;;8.25;78.47;98672.31;113682;1196;24040;-86
2021/10/15 06:19:45;;;;;;;17.90;10.30;;;;;;;8.27;78.48;98664.33;113552;1202;23952;-85
2021/10/15 06:22:13;;;;;;;16.70;9.80;;;;;;;8.31;78.41;98664.95;113284;1202;25132;-86
2021/10/15 06:24:40;;;;;;;19.30;9.90;;;;;;;8.34;78.48;98666.11;113836;1196;25223;-83
2021/10/15 06:27:08;;;;;;;17.70;9.20;;;;;;;8.38;78.42;98666.74;113697;1197;24041;-83
2021/10/15 06:29:35;;;;;;;17.50;9.90;;;;;;;8.39;78.41;98667.98;113720;1201;23764;-83
2021/10/15 06:32:03;;;;;;;15.20;9.90;;;;;;;8.39;78.17;98669.63;113969;1201;24088;-83
2021/10/15 06:34:30;;;;;;;17.90;9.60;;;;;;;8.36;78.04;98664.77;113861;1196;24902;-82
2021/10/15 06:36:57;;;;;;;18.40;9.90;;;;;;;8.35;77.86;98661.80;113709;1201;22407;-82
2021/10/15 06:39:24;;;;;;;18.30;10.10;;;;;;;8.35;78.08;98657.77;113781;1201;25236;-81
2021/10/15 06:41:50;;;;;;;20.00;10.20;;;;;;;8.34;78.01;98661.34;113661;1196;23769;-81
2021/10/15 06:44:17;;;;;;;18.60;10.70;;;;;;;8.33;78.17;98659.20;113765;1201;24159;-81
2021/10/15 06:46:44;;;;;;;23.70;12.30;;;;;;;8.32;78.19;98657.30;113741;1200;30507;-81
2021/10/15 06:49:12;;;;;;;18.10;11.20;;;;;;;8.29;78.05;98658.09;113853;1201;22500;-81
2021/10/15 06:51:39;;;;;;;24.90;11.90;;;;;;;8.25;78.08;98658.98;113732;1202;24087;-81
2021/10/15 06:54:06;;;;;;;27.10;12.40;;;;;;;8.24;78.31;98656.25;113487;1197;22435;-81
2021/10/15 06:56:33;;;;;;;28.30;11.90;;;;;;;8.26;78.40;98654.81;113363;1196;22449;-81
2021/10/15 06:59:00;;;;;;;36.20;12.50;;;;;;;8.31;78.39;98657.60;113360;1203;23181;-81
2021/10/15 07:01:27;;;;;;;31.80;12.80;;;;;;;8.35;78.45;98657.02;113644;1202;25027;-81
2021/10/15 07:03:54;;;;;;;31.30;11.90;;;;;;;8.42;78.46;98659.75;113680;1202;25179;-81
2021/10/15 07:06:21;;;;;;;26.90;11.60;;;;;;;8.50;78.50;98659.17;113789;1196;22452;-81
2021/10/15 07:08:48;;;;;;;28.60;11.70;;;;;;;8.58;78.57;98659.09;113729;1197;24225;-81
2021/10/15 07:11:15;;;;;;;22.90;10.60;;;;;;;8.69;78.44;98665.20;113761;1187;24037;-81
2021/10/15 07:13:41;;;;;;;20.50;9.50;;;;;;;8.81;78.22;98658.71;113923;1201;22427;-82
2021/10/15 07:16:12;;;;;;;18.30;9.40;;;;;;;8.90;78.02;98657.59;113449;1196;24080;-81
2021/10/15 07:18:40;;;;;;;19.50;9.90;;;;;;;8.97;77.76;98660.52;113654;1202;22454;-81
2021/10/15 07:21:08;;;;;;;16.10;8.70;;;;;;;9.04;77.60;98660.80;113563;1203;22500;-81
2021/10/15 07:23:36;;;;;;;20.20;10.00;;;;;;;9.11;77.40;98655.76;113802;1203;22498;-81
2021/10/15 07:26:04;;;;;;;26.80;10.30;;;;;;;9.17;77.42;98654.09;114114;1197;22945;-82
2021/10/15 07:28:31;;;;;;;17.60;9.30;;;;;;;9.26;77.44;98654.70;113895;1201;146907;-82
2021/10/15 07:30:58;;;;;;;17.80;7.90;;;;;;;9.36;77.36;98652.67;114019;1193;56828;-81
2021/10/15 07:33:25;;;;;;;11.60;6.80;;;;;;;9.45;76.91;98649.98;113968;1201;25248;-81
2021/10/15 07:35:52;;;;;;;15.00;7.70;;;;;;;9.56;77.09;98646.72;113618;1196;137208;-81
2021/10/15 07:38:19;;;;;;;16.50;6.70;;;;;;;9.68;77.03;98646.99;113678;1202;24044;-83
2021/10/15 07:40:47;;;;;;;8.00;4.40;;;;;;;9.76;76.30;98644.48;113795;1202;136998;-82
2021/10/15 07:43:27;;;;;;;10.20;4.50;;;;;;;9.83;75.71;98646.34;113789;1202;25343;-81
2021/10/15 07:45:54;;;;;;;7.80;4.70;;;;;;;9.88;75.41;98641.89;113819;1200;24147;-82
2021/10/15 07:48:21;;;;;;;7.20;4.20;;;;;;;9.94;75.18;98643.05;113883;1201;137584;-82
2021/10/15 07:50:48;;;;;;;8.40;4.90;;;;;;;10.02;75.13;98640.52;114426;1201;22433;-82
2021/10/15 07:53:15;;;;;;;9.10;4.90;;;;;;;10.11;74.36;98642.95;114514;1197;137774;-82
2021/10/15 07:55:42;;;;;;;10.20;4.30;;;;;;;10.18;74.58;98637.63;116722;1197;22336;-83
2021/10/15 07:58:23;;;;;;;9.30;3.80;;;;;;;10.29;74.55;98637.84;116589;1201;137526;-82
2021/10/15 08:01:04;;;;;;;6.30;4.10;;;;;;;10.39;74.39;98643.91;116705;1201;22331;-82
2021/10/15 08:03:31;;;;;;;6.60;3.80;;;;;;;10.48;74.15;98643.14;116369;1201;22981;-82
2021/10/15 08:05:58;;;;;;;6.80;3.50;;;;;;;10.55;73.25;98643.13;114479;1195;136924;-82
2021/10/15 08:08:25;;;;;;;10.70;3.60;;;;;;;10.63;73.49;98639.59;114690;1201;25099;-82
2021/10/15 08:10:52;;;;;;;5.10;2.90;;;;;;;10.72;73.33;98638.45;114977;1201;137695;-82
2021/10/15 08:13:19;;;;;;;5.40;3.00;;;;;;;10.78;72.74;98636.58;115303;1201;22442;-82
2021/10/15 08:15:46;;;;;;;4.90;3.20;;;;;;;10.90;72.57;98634.23;114737;1201;22463;-82
2021/10/15 08:18:13;;;;;;;4.20;3.00;;;;;;;11.04;72.15;98634.02;114629;1196;137534;-82
2021/10/15 08:20:40;;;;;;;8.20;3.80;;;;;;;11.16;71.89;98634.24;114659;1190;24144;-81
2021/10/15 08:23:21;;;;;;;10.90;4.70;;;;;;;11.32;71.23;98629.07;114360;1201;136979;-81
2021/10/15 08:25:48;;;;;;;7.30;4.40;;;;;;;11.44;70.75;98628.41;114501;1201;22565;-83
2021/10/15 08:28:15;;;;;;;6.60;3.60;;;;;;;11.53;70.23;98630.80;114366;1194;137462;-81
2021/10/15 08:30:42;;;;;;;5.50;3.70;;;;;;;11.59;69.64;98620.54;114943;1201;22181;-81
2021/10/15 08:33:09;;;;;;;7.10;4.10;;;;;;;11.67;69.88;98619.67;114753;1201;22432;-81
2021/10/15 08:35:36;;;;;;;4.80;3.30;;;;;;;11.76;69.78;98617.69;114971;1201;136765;-81
2021/10/15 08:38:08;;;;;;;6.70;3.20;;;;;;;11.83;69.28;98616.21;115565;1195;22440;-81
2021/10/15 08:40:36;;;;;;;4.50;3.10;;;;;;;11.85;68.47;98610.54;114663;1201;138644;-81
2021/10/15 08:43:03;;;;;;;5.40;3.40;;;;;;;11.89;68.09;98607.41;113920;1201;22448;-81
2021/10/15 08:45:32;;;;;;;5.00;3.30;;;;;;;11.94;68.37;98605.71;115021;1201;22368;-81
2021/10/15 08:48:00;;;;;;;8.00;3.20;;;;;;;12.02;68.18;98604.80;116601;1195;138346;-81
2021/10/15 08:50:27;;;;;;;5.00;2.80;;;;;;;12.12;68.30;98597.67;114809;1201;25129;-81
2021/10/15 08:52:55;;;;;;;5.70;2.60;;;;;;;12.20;67.35;98590.30;114502;1201;137485;-82
2021/10/15 08:55:22;;;;;;;5.70;3.20;;;;;;;12.25;67.01;98593.38;114641;1196;22862;-82
2021/10/15 08:57:54;;;;;;;4.10;3.30;;;;;;;12.28;67.08;98590.05;116741;1195;22162;-82
2021/10/15 09:00:22;;;;;;;4.40;2.90;;;;;;;12.33;66.57;98588.64;114046;1202;143696;-82
2021/10/15 09:03:09;;;;;;;5.60;3.40;;;;;;;12.35;66.50;98583.41;113819;1202;33064;-81
2021/10/15 09:05:37;;;;;;;6.00;3.40;;;;;;;12.42;66.77;98588.79;113939;1196;22982;-81
2021/10/15 09:08:05;;;;;;;6.00;3.30;;;;;;;12.46;66.70;98588.74;114367;1201;137352;-81
2021/10/15 09:10:33;;;;;;;5.90;3.10;;;;;;;12.52;66.72;98593.35;114180;1196;22468;-81
2021/10/15 09:13:18;;;;;;;5.30;3.50;;;;;;;12.58;66.67;98587.46;114220;1201;137333;-81
2021/10/15 09:15:48;;;;;;;5.10;3.00;;;;;;;12.68;66.41;98587.80;114767;1201;22430;-82
2021/10/15 09:18:18;;;;;;;9.20;3.60;;;;;;;12.73;65.72;98586.23;114261;1196;137397;-81
2021/10/15 09:21:14;;;;;;;6.60;3.20;;;;;;;12.81;65.45;98588.71;114797;1200;22463;-81
2021/10/15 09:23:48;;;;;;;4.70;2.90;;;;;;;12.90;65.67;98584.70;113782;1201;137633;-81
2021/10/15 09:26:18;;;;;;;6.80;4.20;;;;;;;13.00;65.55;98583.00;114316;1201;23313;-80
2021/10/15 09:28:47;;;;;;;7.50;3.60;;;;;;;13.10;65.41;98583.27;114429;1196;22719;-81
2021/10/15 09:31:16;;;;;;;6.40;3.90;;;;;;;13.17;65.21;98578.08;114518;1201;136757;-81
2021/10/15 09:33:55;;;;;;;6.90;3.30;;;;;;;13.25;65.30;98580.57;114230;1201;22903;-81
2021/10/15 09:36:25;;;;;;;5.50;3.30;;;;;;;13.35;64.69;98577.02;114334;1201;137200;-81
2021/10/15 09:38:56;;;;;;;6.80;3.70;;;;;;;13.43;64.47;98579.83;114394;1196;22458;-82
2021/10/15 09:41:42;;;;;;;5.30;3.20;;;;;;;13.54;64.84;98577.17;114500;1202;23192;-81
2021/10/15 09:44:32;;;;;;;5.70;3.30;;;;;;;13.66;63.94;98576.73;114566;1202;138176;-81
2021/10/15 09:47:15;;;;;;;4.70;3.10;;;;;;;13.79;64.10;98576.65;115056;1202;22550;-81
2021/10/15 09:50:02;;;;;;;4.60;3.00;;;;;;;13.96;62.60;98571.29;113930;1197;136893;-80
2021/10/15 09:52:41;;;;;;;6.10;3.30;;;;;;;14.05;62.50;98567.89;114105;1201;22497;-81
2021/10/15 09:55:31;;;;;;;8.50;3.50;;;;;;;14.20;61.79;98561.35;114986;1201;137015;-81
2021/10/15 09:58:24;;;;;;;6.20;2.50;;;;;;;14.28;61.46;98562.05;115168;1201;22631;-80
2021/10/15 10:00:55;;;;;;;2.00;1.50;;;;;;;14.23;60.24;98556.48;114762;1195;137014;-81
2021/10/15 10:03:26;;;;;;;2.70;1.60;;;;;;;14.30;60.03;98548.91;116187;1201;22540;-81
2021/10/15 10:05:53;;;;;;;2.50;1.60;;;;;;;14.42;59.40;98551.15;114315;1201;138075;-82
2021/10/15 10:08:20;;;;;;;2.70;1.50;;;;;;;14.50;59.77;98545.75;114700;1189;24075;-81
2021/10/15 10:11:01;;;;;;;2.40;1.50;;;;;;;14.69;59.27;98544.20;115539;1187;23112;-81
2021/10/15 10:13:43;;;;;;;1.80;1.60;;;;;;;14.82;57.57;98541.43;115731;1202;137552;-83
2021/10/15 10:16:10;;;;;;;4.00;1.80;;;;;;;14.88;57.56;98539.75;114138;1202;24090;-81
2021/10/15 10:18:57;;;;;;;3.30;2.10;;;;;;;14.94;57.83;98536.48;114086;1196;137170;-81
2021/10/15 10:21:31;;;;;;;2.10;1.60;;;;;;;14.97;57.40;98531.54;116033;1197;23099;-81
2021/10/15 10:24:08;;;;;;;3.30;1.60;;;;;;;14.99;56.85;98530.45;115777;1201;137242;-81
2021/10/15 10:26:53;;;;;;;2.30;1.80;;;;;;;15.03;57.11;98528.31;114667;1201;22526;-81
2021/10/15 10:29:20;;;;;;;3.20;1.60;;;;;;;15.07;57.19;98527.05;115241;1196;22189;-80
2021/10/15 10:31:48;;;;;;;2.50;1.80;;;;;;;15.12;57.05;98527.72;114248;1202;136853;-80
2021/10/15 10:34:35;;;;;;;2.90;1.90;;;;;;;15.14;56.73;98527.83;114866;1202;22552;-81
2021/10/15 10:37:06;;;;;;;2.80;2.10;;;;;;;15.22;57.89;98527.73;114378;1203;137014;-81
2021/10/15 10:39:48;;;;;;;3.40;2.10;;;;;;;15.35;56.77;98529.64;114519;1196;22536;-80
2021/10/15 10:42:20;;;;;;;3.70;2.00;;;;;;;15.32;56.36;98528.55;114701;1201;137069;-81
2021/10/15 10:44:50;;;;;;;2.20;1.60;;;;;;;15.30;57.25;98529.59;114860;1201;23023;-82
2021/10/15 10:47:21;;;;;;;2.30;1.90;;;;;;;15.26;56.91;98523.27;114275;1201;22484;-81
2021/10/15 10:50:11;;;;;;;7.70;1.80;;;;;;;15.25;57.25;98523.23;115827;1195;136927;-82
2021/10/15 10:52:55;;;;;;;2.80;1.70;;;;;;;15.24;57.05;98520.80;116224;1196;24255;-82
2021/10/15 10:55:54;;;;;;;3.90;1.90;;;;;;;15.25;57.71;98512.04;115117;1201;137110;-82
2021/10/15 10:58:43;;;;;;;2.20;1.70;;;;;;;15.26;56.82;98505.06;114857;1202;23370;-81
2021/10/15 11:01:25;;;;;;;3.90;1.90;;;;;;;15.21;56.54;98504.57;114915;1195;136845;-81
2021/10/15 11:03:55;;;;;;;4.70;1.90;;;;;;;15.18;57.03;98497.39;115850;1187;23081;-82
2021/10/15 11:06:23;;;;;;;2.40;1.60;;;;;;;15.18;56.69;98501.83;115568;1201;137113;-82
2021/10/15 11:09:48;;;;;;;2.50;1.80;;;;;;;15.15;56.21;98494.70;116318;1201;22418;-82
2021/10/15 11:12:41;;;;;;;4.00;2.20;;;;;;;15.13;55.88;98498.10;114676;1196;137161;-81
2021/10/15 11:15:10;;;;;;;2.90;1.70;;;;;;;15.14;56.78;98490.52;114841;1202;22487;-82
2021/10/15 11:17:51;;;;;;;5.20;1.50;;;;;;;15.16;56.47;98483.45;115484;1201;137024;-81
2021/10/15 11:20:22;;;;;;;2.30;1.70;;;;;;;15.20;56.82;98479.11;114714;1194;22434;-81
2021/10/15 11:23:07;;;;;;;8.10;2.40;;;;;;;15.32;56.77;98476.25;114721;1201;25041;-82
2021/10/15 11:25:41;;;;;;;2.90;1.60;;;;;;;15.42;56.82;98474.77;115431;1201;136882;-81
2021/10/15 11:28:12;;;;;;;10.20;2.70;;;;;;;15.56;56.99;98469.64;115066;1196;22935;-82
2021/10/15 11:30:49;;;;;;;2.50;1.90;;;;;;;15.70;56.47;98469.77;116374;1196;137463;-82
2021/10/15 11:33:22;;;;;;;5.50;2.50;;;;;;;15.78;56.10;98464.17;114573;1201;22458;-82
2021/10/15 11:36:03;;;;;;;4.70;2.00;;;;;;;15.76;55.23;98460.39;114435;1201;138093;-82
2021/10/15 11:38:30;;;;;;;1.80;1.60;;;;;;;15.70;55.38;98462.19;115784;1201;25288;-82
2021/10/15 11:41:02;;;;;;;3.90;1.80;;;;;;;15.62;54.93;98458.09;115473;1196;22379;-82
2021/10/15 11:43:35;;;;;;;3.20;1.70;;;;;;;15.53;55.15;98458.00;115408;1201;137330;-82
2021/10/15 11:46:06;;;;;;;3.50;1.60;;;;;;;15.45;54.54;98453.95;116111;1201;22424;-82
2021/10/15 11:48:44;;;;;;;2.90;1.60;;;;;;;15.34;54.86;98450.67;114712;1201;137241;-81
2021/10/15 11:51:28;;;;;;;4.70;1.80;;;;;;;15.29;55.55;98448.38;115410;1196;22251;-82